Syracuse, Nebraska
Current Conditions -  °F | °C
As of 8:35 PM on Wednesday 17 Dec 2014 (Local Time) from KAFK Reporting Station
Overcast Overcast  
Wind Chill: 27°   Ceiling: 7500
Heat Index: 27°   Visibility: 10mi
Dew Point: 19°   Wind: 0mph
Humidity: 70%   Direction: NA
Pressure: 30.26"   Gusts: NA
Location:  40.66°N, 96.19°W
Report Text: KAFK 180235Z AUTO 00000KT 10SM OVC075 M03/M07 A3026 RMK AO2 T10271075
Loading
Personal Weather Stations






























Interactive Weather Map New forecast layout! Learn more

10-Day Weather Forecast

Advertisements
Track Severe Weather on mobile